Sunday, December 17, 2017, 3:17 PM CST
Back to Local

KBTR, Baton Rouge Metro Ryan Field

Location: Baton Rouge, LA, United States Lat: 30.533
Local Time: 3:17 PM CST (21:17 GMT) Lon: -91.15
Time Zone: US/Central Elev: 68 ft

Show me the last for .
Show Decoded

2017-12-17 14:53 METAR KBTR 172053Z 20005KT 6SM BR OVC008 19/18 A3007 RMK AO2 SLP182 T01890178
                 55006 $ =
2017-12-17 13:53 METAR KBTR 171953Z 19006KT 3SM BR OVC006 19/18 A3007 RMK AO2 SLP181 T01890178 $
                 =
2017-12-17 12:53 METAR KBTR 171853Z 18008KT 3SM BR OVC004 19/18 A3007 RMK AO2 LTG DSNT E AND SE
                 SLP182 T01890178 $ =
2017-12-17 11:53 METAR KBTR 171753Z 15006KT 3SM BR OVC004 18/17 A3009 RMK AO2 RAB1656E07 SLP189
                 P0000 60049 T01830172 10183 20167 50000 $ =
2017-12-17 11:00 METAR KBTR 171700Z 15005KT 5SM -RA BR OVC004 17/17 A3010 =
2017-12-17 10:53 METAR KBTR 171653Z 10005KT 5SM BR SCT003 BKN012 OVC039 17/17 A3010 RMK AO2 RAE19
                 SLP191 P0010 T01720167 $ =
2017-12-17 10:32 METAR KBTR 171632Z 10005KT 5SM BR SCT003 BKN012 OVC039 17/17 A3011 RMK AO2 RAE19
                 P0010 T01720167 $ =
2017-12-17 10:09 METAR KBTR 171609Z 10005KT 3SM -RA BR FEW004 BKN028 OVC039 17/17 A3010 RMK AO2
                 P0010 T01670167 $ =
2017-12-17 09:53 METAR KBTR 171553Z 10004KT 1 3/4SM +RA BR FEW006 BKN010 OVC037 17/16 A3011 RMK
                 AO2 SLP197 P0009 T01670161 $ =
2017-12-17 09:37 METAR KBTR 171537Z 11005KT 2 1/2SM +RA BR SCT004 BKN010 OVC039 17/16 A3011 RMK
                 AO2 P0003 T01670161 $ =
2017-12-17 09:24 METAR KBTR 171524Z 09005KT 5SM -RA BR BKN004 BKN039 OVC048 17/16 A3011 RMK AO2
                 P0001 T01670161 $ =
2017-12-17 08:53 METAR KBTR 171453Z 06004KT 5SM -RA BR SCT036 BKN047 OVC055 17/16 A3009 RMK AO2
                 SLP189 P0002 60030 T01670161 53018 $ =
2017-12-17 08:24 METAR KBTR 171424Z 08004KT 5SM -RA BR FEW004 BKN039 OVC048 17/16 A3007 RMK AO2
                 P0000 T01670156 $ =
2017-12-17 07:53 METAR KBTR 171353Z 36003KT 10SM -RA FEW029 BKN040 OVC048 17/16 A3006 RMK AO2
                 SLP177 P0002 T01670156 $ =
2017-12-17 06:53 METAR KBTR 171253Z VRB04KT 3SM -RA BR SCT005 OVC055 17/16 A3005 RMK AO2 RAE43B46
                 SLP175 P0026 T01670161 $ =
2017-12-17 06:45 METAR KBTR 171245Z 32006KT 8SM FEW005 FEW045 OVC050 17/16 A3005 RMK AO2 RAE43
                 P0026 T01670161 $ =
2017-12-17 06:37 METAR KBTR 171237Z 31009KT 5SM -RA BR SCT005 BKN014 OVC050 17/16 A3005 RMK AO2
                 P0026 T01720161 $ =
2017-12-17 06:24 METAR KBTR 171224Z 29007KT 3SM -RA BR SCT007 BKN015 OVC055 17/17 A3005 RMK AO2
                 P0025 T01720167 $ =
2017-12-17 06:19 METAR KBTR 171219Z 30009KT 2 1/2SM RA BR SCT005 BKN013 OVC055 17/17 A3004 RMK
                 AO2 P0024 T01720167 $ =
2017-12-17 06:12 METAR KBTR 171212Z 29011G18KT 2 1/2SM +RA BR SCT005 BKN009 OVC026 18/17 A3004
                 RMK AO2 VIS 1 3/4V4 P0021 T01780172 $ =
2017-12-17 06:08 METAR KBTR 171208Z 27012G18KT 3SM -RA BR SCT005 BKN011 OVC026 18/17 A3004 RMK
                 AO2 P0020 T01780172 $ =
2017-12-17 05:53 METAR KBTR 171153Z 27017G20KT 1 1/2SM +RA BR SCT005 BKN013 OVC019 17/17 A3004
                 RMK AO2 LTG DSNT E PRESRR SLP171 P0059 60063 70063 T01720167 10172 20128 53008 $
                 =
2017-12-17 05:46 METAR KBTR 171146Z 01008KT 1 1/2SM +RA BR SCT006 BKN013 OVC019 17/17 A2997 RMK
                 AO2 LTG DSNT E P0054 T01720167 $ =
2017-12-17 05:38 METAR KBTR 171138Z 05010KT 1 1/4SM +RA BR SCT007 BKN015 OVC024 17/17 A2996 =
2017-12-17 05:24 METAR KBTR 171124Z 11008KT 1 3/4SM +RA BR OVC008 17/16 A3001 RMK AO2 P0006
                 T01670161 $ =
2017-12-17 05:06 METAR KBTR 171106Z 10005KT 6SM -RA BR OVC008 17/16 A3000 RMK AO2 CIG 005V013
                 P0001 T01670161 $ =
2017-12-17 04:53 METAR KBTR 171053Z 09005KT 7SM -RA OVC010 17/16 A3001 RMK AO2 RAB0956 SLP160
                 P0004 T01670161 $ =
2017-12-17 04:03 METAR KBTR 171003Z AUTO 11007G14KT 9SM -RA BKN009 BKN014 OVC038 17/16 A3002 RMK
                 AO2 RAB0956 P0000 T01670156 $ =
2017-12-17 04:00 METAR KBTR 171000Z AUTO 12010KT 10SM -RA SCT009 BKN016 OVC038 17/15 A3001 RMK
                 AO2 RAB0956 P0000 T01670150 $ =
2017-12-17 03:53 METAR KBTR 170953Z AUTO 12008G16KT 10SM BKN013 BKN025 OVC100 17/15 A3001 RMK AO2
                 RAB44E53 SLP163 P0000 T01670150 $ =
2017-12-17 02:53 METAR KBTR 170853Z AUTO 12010KT 10SM OVC010 16/14 A3004 RMK AO2 CIG 009V014
                 SLP170 T01610139 56019 $ =
2017-12-17 01:53 METAR KBTR 170753Z AUTO 12012G18KT 10SM BKN014 OVC022 16/13 A3004 RMK AO2 SLP171
                 T01560133 $ =
2017-12-17 00:53 METAR KBTR 170653Z AUTO 10010G20KT 10SM BKN012 14/12 A3004 RMK AO2 SLP172
                 T01390117 $ =
2017-12-16 23:53 METAR KBTR 170553Z AUTO 10009KT 10SM OVC012 13/09 A3009 RMK AO2 SLP189 T01280094
                 10128 20117 401560039 $ =
2017-12-16 23:22 METAR KBTR 170522Z AUTO 11011G17KT 10SM OVC014 13/08 A3010 RMK AO2 T01280083 $ =
2017-12-16 23:07 METAR KBTR 170507Z AUTO 11010KT 10SM BKN016 OVC060 12/08 A3010 =
2017-12-16 22:53 METAR KBTR 170453Z AUTO 10011KT 10SM FEW018 OVC060 12/07 A3010 RMK AO2 SLP192
                 T01220072 $ =
2017-12-16 21:53 METAR KBTR 170353Z AUTO 09011KT 10SM CLR 12/05 A3012 RMK AO2 SLP197 T01170050 $
                 =
2017-12-16 20:53 METAR KBTR 170253Z 09011KT 10SM OVC100 12/03 A3014 RMK AO2 SLP207 T01170028
                 58009 =
2017-12-16 19:53 METAR KBTR 170153Z 08009KT 10SM BKN021 BKN029 OVC100 12/02 A3017 RMK AO2 SLP214
                 T01170022 =
2017-12-16 18:53 METAR KBTR 170053Z 06008KT 10SM BKN024 OVC030 12/02 A3017 RMK AO2 SLP216
                 T01170017 =
2017-12-16 17:53 METAR KBTR 162353Z 10008KT 10SM OVC024 12/M02 A3017 RMK AO2 SLP216 T01221017
                 10156 20122 53002 =
2017-12-16 16:53 METAR KBTR 162253Z 12007KT 10SM OVC023 13/M04 A3017 RMK AO2 SLP215 T01281044 =
2017-12-16 15:53 METAR KBTR 162153Z 10009KT 10SM BKN023 15/M01 A3016 RMK AO2 SLP213 T01501006 =

Support USWX by starting your Amazon purchase here.